KNPA/NPA METAR and TAF weather

Enter ICAO airport designator
Station Type Date Time Source
KNPA METAR 2021/06/24 05:07 UTC NOAA

KNPA 240507Z AUTO 19004KT 10SM BKN020 26/24 A3007 RMK AO2 T02610239 $


Station Type Date Time Source
KNPA Decoded METAR 2021/06/24 05:07 UTC NOAA

Pensacola, Naval Air Station, FL, United States (KNPA) 30-21-22N 087-19-24W 10M
Jun 24, 2021 - 01:07 AM EDT / 2021.06.24 0507 UTC
Wind: from the S (190 degrees) at 5 MPH (4 KT):0
Visibility: 10 mile(s):0
Sky conditions: mostly cloudy
Temperature: 79.0 F (26.1 C)
Dew Point: 75.0 F (23.9 C)
Relative Humidity: 87%
Pressure (altimeter): 30.07 in. Hg (1018 hPa)
ob: KNPA 240507Z AUTO 19004KT 10SM BKN020 26/24 A3007 RMK AO2 T02610239
cycle: 5

Station Type Date Time Source
KNPA TAF 2021/06/23 23:58 UTC NOAA

TAF KNPA 2323/2423 21009KT 9999 FEW025 SCT080 BKN250 QNH3001INS
FM240100 VRB05KT 9999 FEW025 BKN250 QNH3002INS
FM241000 VRB03KT 9999 SCT015 SCT250 QNH3000INS
TEMPO 2410/2414 BKN015
FM241400 14008KT 9999 SCT020 SCT250 QNH3005INS
FM241800 20011KT 9999 VCTS SCT025CB SCT060 BKN250 QNH3000INS AUTOMATED SENSOR METWATCH 2403 TIL 2411 T25/2412Z T30/2420Z FN20034

Example: see airport list